createdAt,value
2022-11-25T00:01:23.185Z,0.30
2022-11-25T00:03:54.862Z,0.40
2022-11-25T00:06:24.720Z,0.50
2022-11-25T00:08:59.469Z,0.50
2022-11-25T00:11:28.383Z,0.50
2022-11-25T00:13:57.360Z,0.50
2022-11-25T00:16:28.684Z,0.50
2022-11-25T00:18:58.571Z,0.60
2022-11-25T00:21:35.403Z,0.60
2022-11-25T00:24:05.804Z,0.60
2022-11-25T00:26:35.063Z,0.50
2022-11-25T00:29:05.448Z,0.40
2022-11-25T00:31:36.979Z,0.40
2022-11-25T00:34:04.709Z,0.50
2022-11-25T00:36:35.767Z,0.50
2022-11-25T00:39:06.332Z,0.60
2022-11-25T00:41:52.801Z,0.60
2022-11-25T00:44:41.010Z,0.50
2022-11-25T00:47:19.790Z,0.50
2022-11-25T00:49:52.441Z,0.60
2022-11-25T00:52:22.377Z,0.60
2022-11-25T00:54:50.457Z,0.50
2022-11-25T00:57:20.746Z,0.30
2022-11-25T00:59:49.135Z,0.30
2022-11-25T01:02:18.045Z,0.30
2022-11-25T01:04:46.556Z,0.30
2022-11-25T01:07:14.707Z,0.30
2022-11-25T01:09:41.872Z,0.20
2022-11-25T01:12:09.461Z,0.30
2022-11-25T01:14:37.428Z,0.40
2022-11-25T01:17:05.240Z,0.30
2022-11-25T01:19:32.368Z,0.30
2022-11-25T01:22:00.171Z,0.40
2022-11-25T01:24:28.804Z,0.50
2022-11-25T01:26:56.704Z,0.50
2022-11-25T01:29:25.338Z,0.40
2022-11-25T01:31:55.408Z,0.40
2022-11-25T01:34:25.395Z,0.50
2022-11-25T01:36:52.828Z,0.30
2022-11-25T01:39:25.626Z,0.30
2022-11-25T01:41:55.911Z,0.20
2022-11-25T01:44:26.151Z,0.20
2022-11-25T01:47:05.638Z,0.30
2022-11-25T01:49:46.723Z,0.40
2022-11-25T01:52:34.606Z,0.40
2022-11-25T01:55:11.578Z,0.30
2022-11-25T01:58:10.312Z,0.40
2022-11-25T02:00:39.836Z,0.50
2022-11-25T02:03:08.436Z,0.50
2022-11-25T02:06:17.068Z,0.60
2022-11-25T02:08:49.793Z,0.40
2022-11-25T02:11:18.588Z,0.30
2022-11-25T02:13:49.223Z,0.20
2022-11-25T02:16:16.399Z,0.10
2022-11-25T02:18:43.908Z,0.20
2022-11-25T02:21:10.994Z,0.20
2022-11-25T02:24:01.373Z,0.30
2022-11-25T02:26:28.812Z,0.40
2022-11-25T02:28:56.964Z,0.30
2022-11-25T02:31:24.529Z,0.20
2022-11-25T02:33:52.042Z,0.10
2022-11-25T02:36:22.740Z,0.10
2022-11-25T02:39:01.658Z,0.00
2022-11-25T02:41:39.241Z,0.10
2022-11-25T02:44:07.701Z,0.20
2022-11-25T02:46:34.864Z,0.30
2022-11-25T02:49:10.991Z,0.40
2022-11-25T02:51:41.614Z,0.50
2022-11-25T02:54:09.415Z,0.50
2022-11-25T02:56:37.444Z,0.30
2022-11-25T02:59:05.165Z,0.20
2022-11-25T03:01:33.288Z,0.20
2022-11-25T03:04:02.637Z,0.30
2022-11-25T03:06:30.857Z,0.40
2022-11-25T03:08:58.693Z,0.40
2022-11-25T03:11:45.724Z,0.50
2022-11-25T03:14:14.238Z,0.40
2022-11-25T03:16:42.563Z,0.40
2022-11-25T03:19:10.233Z,0.40
2022-11-25T03:21:37.305Z,0.30
2022-11-25T03:24:05.582Z,0.30
2022-11-25T03:26:32.754Z,0.20
2022-11-25T03:29:00.473Z,0.30
2022-11-25T03:31:27.781Z,0.40
2022-11-25T03:33:56.025Z,0.50
2022-11-25T03:36:23.126Z,0.50
2022-11-25T03:38:50.743Z,0.60
2022-11-25T03:41:18.062Z,0.40
2022-11-25T03:43:46.151Z,0.40
2022-11-25T03:46:13.426Z,0.40
2022-11-25T03:48:41.008Z,0.50
2022-11-25T03:51:08.078Z,0.40
2022-11-25T03:53:35.629Z,0.40
2022-11-25T03:56:03.159Z,0.40
2022-11-25T03:58:30.605Z,0.50
2022-11-25T04:01:02.302Z,0.40
2022-11-25T04:03:30.790Z,0.50
2022-11-25T04:05:58.627Z,0.60
2022-11-25T04:08:27.433Z,0.60
2022-11-25T04:10:54.711Z,0.60
2022-11-25T04:13:22.329Z,0.70
2022-11-25T04:15:51.153Z,0.70
2022-11-25T04:18:20.251Z,0.70
2022-11-25T04:20:47.509Z,0.60
2022-11-25T04:23:15.071Z,0.50
2022-11-25T04:25:42.280Z,0.40
2022-11-25T04:28:09.991Z,0.30
2022-11-25T04:30:37.644Z,0.40
2022-11-25T04:33:05.260Z,0.30
2022-11-25T04:35:32.509Z,0.40
2022-11-25T04:38:00.222Z,0.30
2022-11-25T04:40:27.330Z,0.30
2022-11-25T04:43:01.551Z,0.40
2022-11-25T04:45:40.678Z,0.60
2022-11-25T04:48:18.903Z,0.50
2022-11-25T04:50:46.179Z,0.50
2022-11-25T04:53:13.867Z,0.50
2022-11-25T04:55:41.716Z,0.60
2022-11-25T04:58:11.340Z,0.70
2022-11-25T05:00:38.831Z,0.70
2022-11-25T05:03:07.090Z,0.70
2022-11-25T05:05:34.213Z,0.70
2022-11-25T05:08:01.828Z,0.80
2022-11-25T05:10:28.971Z,0.80
2022-11-25T05:12:57.206Z,0.80
2022-11-25T05:15:24.302Z,0.80
2022-11-25T05:17:52.117Z,0.80
2022-11-25T05:20:19.294Z,0.80
2022-11-25T05:22:47.973Z,0.70
2022-11-25T05:25:17.766Z,0.70
2022-11-25T05:27:45.395Z,0.60
2022-11-25T05:30:13.324Z,0.60
2022-11-25T05:32:41.232Z,0.40
2022-11-25T05:35:08.799Z,0.40
2022-11-25T05:37:36.273Z,0.40
2022-11-25T05:40:04.735Z,0.40
2022-11-25T05:42:32.224Z,0.40
2022-11-25T05:44:59.554Z,0.50
2022-11-25T05:47:27.138Z,0.60
2022-11-25T05:49:54.397Z,0.60
2022-11-25T05:52:21.969Z,0.50
2022-11-25T05:54:52.176Z,0.50
2022-11-25T05:57:21.911Z,0.50
2022-11-25T05:59:49.104Z,0.50
2022-11-25T06:02:16.707Z,0.50
2022-11-25T06:04:44.296Z,0.50
2022-11-25T06:07:11.869Z,0.50
2022-11-25T06:09:40.098Z,0.50
2022-11-25T06:12:07.931Z,0.50
2022-11-25T06:14:35.275Z,0.50
2022-11-25T06:17:03.199Z,0.60
2022-11-25T06:19:31.320Z,0.60
2022-11-25T06:21:58.792Z,0.60
2022-11-25T06:24:25.921Z,0.60
2022-11-25T06:26:53.526Z,0.60
2022-11-25T06:29:20.743Z,0.60
2022-11-25T06:31:50.712Z,0.70
2022-11-25T06:34:17.941Z,0.80
2022-11-25T06:36:45.415Z,0.80
2022-11-25T06:39:12.839Z,0.80
2022-11-25T06:41:40.372Z,0.60
2022-11-25T06:44:07.495Z,0.70
2022-11-25T06:46:35.339Z,0.80
2022-11-25T06:49:02.761Z,0.90
2022-11-25T06:51:45.075Z,0.90
2022-11-25T06:54:12.841Z,0.80
2022-11-25T06:56:40.334Z,0.70
2022-11-25T06:59:10.605Z,0.70
2022-11-25T07:01:38.490Z,0.70
2022-11-25T07:04:06.449Z,0.60
2022-11-25T07:06:33.857Z,0.60
2022-11-25T07:09:02.405Z,0.60
2022-11-25T07:11:32.460Z,0.60
2022-11-25T07:14:11.269Z,0.60
2022-11-25T07:16:41.233Z,0.60
2022-11-25T07:19:13.347Z,0.70
2022-11-25T07:21:40.761Z,0.70
2022-11-25T07:24:08.655Z,0.70
2022-11-25T07:26:40.725Z,0.80
2022-11-25T07:29:29.405Z,0.90
2022-11-25T07:31:57.919Z,0.80
2022-11-25T07:34:25.759Z,0.80
2022-11-25T07:36:52.989Z,0.80
2022-11-25T07:39:23.095Z,0.80
2022-11-25T07:41:53.316Z,0.80
2022-11-25T07:44:21.592Z,0.90
2022-11-25T07:46:50.325Z,0.90
2022-11-25T07:49:21.213Z,0.90
2022-11-25T07:51:54.870Z,0.80
2022-11-25T07:54:24.728Z,0.80
2022-11-25T07:56:52.362Z,0.80
2022-11-25T07:59:21.974Z,0.80
2022-11-25T08:01:50.799Z,0.90
2022-11-25T08:04:20.854Z,0.90
2022-11-25T08:06:50.858Z,0.90
2022-11-25T08:09:22.265Z,0.90
2022-11-25T08:11:50.005Z,0.90
2022-11-25T08:14:18.038Z,0.90
2022-11-25T08:16:45.571Z,0.90
2022-11-25T08:19:16.342Z,0.90
2022-11-25T08:21:43.994Z,0.80
2022-11-25T08:24:21.001Z,0.90
2022-11-25T08:26:49.283Z,0.90
2022-11-25T08:29:21.320Z,0.90
2022-11-25T08:31:48.572Z,1.00
2022-11-25T08:34:22.940Z,1.00
2022-11-25T08:36:50.105Z,1.00
2022-11-25T08:39:50.454Z,0.80
2022-11-25T08:42:07.267Z,0.90
2022-11-25T08:44:38.652Z,1.00
2022-11-25T08:47:05.806Z,1.10
2022-11-25T08:49:39.154Z,1.10
2022-11-25T08:52:08.896Z,1.10
2022-11-25T08:54:40.017Z,1.10
2022-11-25T08:57:07.306Z,1.10
2022-11-25T08:59:35.731Z,1.10
2022-11-25T09:02:03.437Z,1.20
2022-11-25T09:04:31.051Z,1.10
2022-11-25T09:06:58.292Z,1.10
2022-11-25T09:09:25.848Z,1.10
2022-11-25T09:11:53.106Z,1.20
2022-11-25T09:14:20.826Z,1.20
2022-11-25T09:16:48.157Z,1.30
2022-11-25T09:19:15.743Z,1.30
2022-11-25T09:21:46.000Z,1.30
2022-11-25T09:24:13.824Z,1.40
2022-11-25T09:26:42.412Z,1.50
2022-11-25T09:29:12.260Z,1.60
2022-11-25T09:31:42.834Z,1.70
2022-11-25T09:34:11.068Z,1.80
2022-11-25T09:36:38.637Z,1.80
2022-11-25T09:39:06.564Z,1.80
2022-11-25T09:42:34.629Z,1.80
2022-11-25T09:45:29.611Z,1.80
2022-11-25T09:48:37.347Z,1.60
2022-11-25T09:51:19.996Z,1.40
2022-11-25T09:53:56.869Z,1.30
2022-11-25T09:56:38.387Z,1.30
2022-11-25T09:59:15.158Z,1.20
2022-11-25T10:01:55.887Z,1.20
2022-11-25T10:04:49.522Z,1.20
2022-11-25T10:07:44.257Z,1.30
2022-11-25T10:10:26.736Z,1.40
2022-11-25T10:12:56.994Z,1.30
2022-11-25T10:15:32.848Z,1.40
2022-11-25T10:18:06.476Z,1.40
2022-11-25T10:20:38.454Z,1.50
2022-11-25T10:23:10.554Z,1.40
2022-11-25T10:25:46.695Z,1.50
2022-11-25T10:28:23.750Z,1.40
2022-11-25T10:31:07.140Z,1.50
2022-11-25T10:33:47.258Z,1.40
2022-11-25T10:36:17.635Z,1.40
2022-11-25T10:39:11.356Z,1.40
2022-11-25T10:41:53.197Z,1.50
2022-11-25T10:44:33.943Z,1.50
2022-11-25T10:47:14.351Z,1.60
2022-11-25T10:50:03.782Z,1.50
2022-11-25T10:52:39.943Z,1.50
2022-11-25T10:55:16.155Z,1.50
2022-11-25T10:57:44.461Z,1.50
2022-11-25T11:00:30.194Z,1.50
2022-11-25T11:02:58.502Z,1.60
2022-11-25T11:05:30.845Z,1.70
2022-11-25T11:08:21.186Z,1.70
2022-11-25T11:11:17.325Z,1.80
2022-11-25T11:13:45.518Z,1.90
2022-11-25T11:16:43.539Z,2.00
2022-11-25T11:19:26.356Z,1.90
2022-11-25T11:21:57.417Z,1.90
2022-11-25T11:24:27.019Z,1.90
2022-11-25T11:27:22.508Z,1.90
2022-11-25T11:30:18.742Z,2.10
2022-11-25T11:33:06.478Z,2.20
2022-11-25T11:35:55.820Z,2.30
2022-11-25T11:39:12.936Z,2.30
2022-11-25T11:42:27.356Z,2.30
2022-11-25T11:45:22.943Z,2.30
2022-11-25T11:48:25.015Z,2.30
2022-11-25T11:50:56.020Z,2.20
2022-11-25T11:54:00.349Z,2.00
2022-11-25T11:56:42.103Z,2.10
2022-11-25T11:59:30.898Z,2.10
2022-11-25T12:02:21.798Z,2.20
2022-11-25T12:05:10.451Z,2.20
2022-11-25T12:07:48.252Z,2.20
2022-11-25T12:10:15.879Z,2.30
2022-11-25T12:13:05.811Z,2.30
2022-11-25T12:15:59.222Z,2.30
2022-11-25T12:19:03.329Z,2.30
2022-11-25T12:21:55.376Z,2.20
2022-11-25T12:24:40.429Z,2.30
2022-11-25T12:27:14.593Z,2.30
2022-11-25T12:29:55.771Z,2.30
2022-11-25T12:32:38.727Z,2.40
2022-11-25T12:35:11.969Z,2.40
2022-11-25T12:38:04.645Z,2.30
2022-11-25T12:40:47.066Z,2.30
2022-11-25T12:43:34.748Z,2.30
2022-11-25T12:46:32.684Z,2.20
2022-11-25T12:49:01.156Z,2.20
2022-11-25T12:51:46.511Z,2.20
2022-11-25T12:54:39.154Z,2.30
2022-11-25T12:57:28.254Z,2.20
2022-11-25T13:00:43.058Z,2.20
2022-11-25T13:03:28.756Z,2.10
2022-11-25T13:06:29.988Z,2.00
2022-11-25T13:09:24.039Z,2.00
2022-11-25T13:12:16.194Z,1.90
2022-11-25T13:14:58.884Z,1.90
2022-11-25T13:17:29.740Z,1.90
2022-11-25T13:20:29.260Z,1.90
2022-11-25T13:23:06.111Z,2.00
2022-11-25T13:25:34.195Z,2.00
2022-11-25T13:28:04.657Z,2.10
2022-11-25T13:30:38.419Z,2.10
2022-11-25T13:33:11.630Z,2.10
2022-11-25T13:35:49.521Z,2.10
2022-11-25T13:38:38.252Z,2.10
2022-11-25T13:41:11.474Z,2.20
2022-11-25T13:44:17.727Z,2.20
2022-11-25T13:46:49.086Z,2.20
2022-11-25T13:49:33.436Z,2.10
2022-11-25T13:52:23.710Z,2.10
2022-11-25T13:54:53.964Z,2.20
2022-11-25T13:57:40.478Z,2.20
2022-11-25T14:00:20.198Z,2.00
2022-11-25T14:02:49.961Z,2.10
2022-11-25T14:05:45.624Z,2.00
2022-11-25T14:08:35.194Z,2.00
2022-11-25T14:11:26.588Z,1.90
2022-11-25T14:14:10.054Z,1.90
2022-11-25T14:16:49.330Z,1.90
2022-11-25T14:19:51.198Z,1.90
2022-11-25T14:22:31.137Z,1.90
2022-11-25T14:25:14.029Z,1.90
2022-11-25T14:27:47.016Z,1.90
2022-11-25T14:30:16.919Z,2.00
2022-11-25T14:32:56.161Z,2.00
2022-11-25T14:35:43.699Z,2.10
2022-11-25T14:38:41.985Z,2.20
2022-11-25T14:41:53.184Z,2.20
2022-11-25T14:44:26.251Z,2.20
2022-11-25T14:46:56.287Z,2.20
2022-11-25T14:49:46.622Z,2.30
2022-11-25T14:52:32.848Z,2.30
2022-11-25T14:55:01.802Z,2.30
2022-11-25T14:57:34.449Z,2.30
2022-11-25T15:00:15.565Z,2.30
2022-11-25T15:03:17.897Z,2.20
2022-11-25T15:05:53.552Z,2.20
2022-11-25T15:08:22.441Z,2.20
2022-11-25T15:10:59.486Z,2.20
2022-11-25T15:13:30.261Z,2.20
2022-11-25T15:16:24.638Z,2.20
2022-11-25T15:18:56.740Z,2.20
2022-11-25T15:22:14.598Z,2.20
2022-11-25T15:24:40.767Z,2.20
2022-11-25T15:27:19.889Z,2.30
2022-11-25T15:29:50.079Z,2.30
2022-11-25T15:32:30.457Z,2.30
2022-11-25T15:35:02.741Z,2.20
2022-11-25T15:37:30.269Z,2.20
2022-11-25T15:40:32.801Z,2.20
2022-11-25T15:43:02.102Z,2.20
2022-11-25T15:45:45.637Z,2.20
2022-11-25T15:48:30.289Z,2.20
2022-11-25T15:51:05.213Z,2.20
2022-11-25T15:53:37.702Z,2.10
2022-11-25T15:56:07.551Z,2.00
2022-11-25T15:58:35.506Z,2.00
2022-11-25T16:01:17.582Z,2.00
2022-11-25T16:03:46.522Z,2.00
2022-11-25T16:06:32.611Z,1.90
2022-11-25T16:09:02.031Z,1.90
2022-11-25T16:11:33.821Z,1.90
2022-11-25T16:14:29.237Z,1.90
2022-11-25T16:17:11.541Z,1.90
2022-11-25T16:19:42.830Z,1.90
2022-11-25T16:22:17.521Z,1.90
2022-11-25T16:25:01.759Z,1.90
2022-11-25T16:27:31.527Z,1.80
2022-11-25T16:30:06.112Z,1.90
2022-11-25T16:32:34.850Z,1.90
2022-11-25T16:35:21.273Z,1.80
2022-11-25T16:37:49.785Z,1.90
2022-11-25T16:40:19.133Z,1.90
2022-11-25T16:42:48.741Z,1.90
2022-11-25T16:45:25.090Z,1.90
2022-11-25T16:47:52.742Z,1.90
2022-11-25T16:50:21.146Z,1.90
2022-11-25T16:52:50.270Z,1.90
2022-11-25T16:55:18.749Z,2.00
2022-11-25T16:57:46.855Z,2.00
2022-11-25T17:00:17.495Z,1.90
2022-11-25T17:02:45.864Z,1.90
2022-11-25T17:05:23.708Z,1.80
2022-11-25T17:07:52.248Z,1.80
2022-11-25T17:10:20.817Z,1.80
2022-11-25T17:12:49.486Z,1.80
2022-11-25T17:15:24.734Z,1.80
2022-11-25T17:17:54.511Z,1.90
2022-11-25T17:20:27.034Z,1.90
2022-11-25T17:22:55.757Z,1.90
2022-11-25T17:25:25.792Z,1.90
2022-11-25T17:27:54.910Z,1.90
2022-11-25T17:30:23.900Z,2.00
2022-11-25T17:33:06.673Z,2.00
2022-11-25T17:35:37.922Z,2.00
2022-11-25T17:38:19.257Z,2.00
2022-11-25T17:40:47.273Z,2.00
2022-11-25T17:43:17.252Z,2.00
2022-11-25T17:45:46.367Z,2.00
2022-11-25T17:48:16.438Z,2.00
2022-11-25T17:50:44.253Z,2.00
2022-11-25T17:53:12.489Z,2.00
2022-11-25T17:55:41.604Z,1.90
2022-11-25T17:58:12.440Z,1.90
2022-11-25T18:00:42.699Z,2.00
2022-11-25T18:03:13.039Z,1.90
2022-11-25T18:05:40.445Z,1.90
2022-11-25T18:08:08.455Z,1.80
2022-11-25T18:10:35.865Z,1.80
2022-11-25T18:13:05.012Z,1.80
2022-11-25T18:15:34.516Z,1.80
2022-11-25T18:18:16.338Z,1.80
2022-11-25T18:20:44.227Z,1.90
2022-11-25T18:23:11.992Z,1.90
2022-11-25T18:25:40.722Z,1.90
2022-11-25T18:28:14.103Z,1.80
2022-11-25T18:30:41.406Z,1.80
2022-11-25T18:33:14.540Z,1.90
2022-11-25T18:35:43.973Z,1.90
2022-11-25T18:38:12.719Z,1.90
2022-11-25T18:40:42.976Z,1.90
2022-11-25T18:43:17.288Z,1.90
2022-11-25T18:45:46.000Z,1.90
2022-11-25T18:48:20.540Z,1.90
2022-11-25T18:50:49.353Z,1.90
2022-11-25T18:53:17.541Z,1.90
2022-11-25T18:55:45.364Z,1.90
2022-11-25T18:58:41.712Z,1.90
2022-11-25T19:01:14.158Z,1.80
2022-11-25T19:03:43.300Z,1.80
2022-11-25T19:06:15.655Z,1.80
2022-11-25T19:08:43.918Z,1.80
2022-11-25T19:11:19.074Z,1.90
2022-11-25T19:13:51.042Z,1.90
2022-11-25T19:16:21.337Z,2.00
2022-11-25T19:18:49.697Z,2.00
2022-11-25T19:21:19.353Z,2.00
2022-11-25T19:23:48.051Z,2.10
2022-11-25T19:26:19.227Z,2.10
2022-11-25T19:28:50.130Z,2.10
2022-11-25T19:31:19.577Z,2.00
2022-11-25T19:33:51.332Z,2.00
2022-11-25T19:36:25.455Z,2.10
2022-11-25T19:38:54.435Z,2.10
2022-11-25T19:41:22.017Z,2.10
2022-11-25T19:43:49.684Z,2.20
2022-11-25T19:46:19.878Z,2.20
2022-11-25T19:48:54.360Z,2.20
2022-11-25T19:51:24.927Z,2.10
2022-11-25T19:53:53.205Z,2.10
2022-11-25T19:56:27.098Z,2.10
2022-11-25T19:58:54.968Z,2.20
2022-11-25T20:01:33.790Z,2.20
2022-11-25T20:04:03.786Z,2.20
2022-11-25T20:06:32.300Z,2.20
2022-11-25T20:09:06.476Z,2.20
2022-11-25T20:11:36.710Z,2.20
2022-11-25T20:14:07.845Z,2.20
2022-11-25T20:16:38.010Z,2.30
2022-11-25T20:19:07.487Z,2.20
2022-11-25T20:21:39.974Z,2.20
2022-11-25T20:24:15.239Z,2.20
2022-11-25T20:26:46.132Z,2.20
2022-11-25T20:29:25.866Z,2.20
2022-11-25T20:32:01.690Z,2.10
2022-11-25T20:34:38.781Z,2.10
2022-11-25T20:37:12.715Z,2.00
2022-11-25T20:39:41.416Z,2.10
2022-11-25T20:42:12.245Z,2.10
2022-11-25T20:44:40.484Z,2.10
2022-11-25T20:47:17.454Z,2.00
2022-11-25T20:49:46.132Z,2.00
2022-11-25T20:52:29.877Z,2.00
2022-11-25T20:54:58.212Z,2.10
2022-11-25T20:57:25.973Z,2.10
2022-11-25T20:59:53.681Z,2.20
2022-11-25T21:02:21.926Z,2.20
2022-11-25T21:04:49.812Z,2.20
2022-11-25T21:07:18.071Z,2.20
2022-11-25T21:09:45.830Z,2.30
2022-11-25T21:12:18.856Z,2.30
2022-11-25T21:14:47.858Z,2.30
2022-11-25T21:17:15.467Z,2.20
2022-11-25T21:19:43.457Z,2.10
2022-11-25T21:22:15.142Z,2.10
2022-11-25T21:24:43.636Z,2.20
2022-11-25T21:27:14.980Z,2.10
2022-11-25T21:29:44.030Z,2.20
2022-11-25T21:32:31.509Z,2.20
2022-11-25T21:34:59.399Z,2.20
2022-11-25T21:37:40.838Z,2.10
2022-11-25T21:40:30.698Z,2.10
2022-11-25T21:42:58.223Z,2.20
2022-11-25T21:45:25.882Z,2.10
2022-11-25T21:47:54.577Z,2.10
2022-11-25T21:50:22.514Z,2.10
2022-11-25T21:52:50.022Z,2.10
2022-11-25T21:55:17.950Z,2.10
2022-11-25T21:57:45.524Z,2.10
2022-11-25T22:00:25.012Z,2.10
2022-11-25T22:02:53.897Z,2.10
2022-11-25T22:05:25.866Z,2.10
2022-11-25T22:07:55.167Z,2.10
2022-11-25T22:10:23.200Z,2.10
2022-11-25T22:12:50.657Z,2.00
2022-11-25T22:15:23.466Z,2.10
2022-11-25T22:17:57.694Z,2.10
2022-11-25T22:20:30.775Z,2.10
2022-11-25T22:22:57.950Z,2.10
2022-11-25T22:25:27.691Z,2.10
2022-11-25T22:27:55.157Z,2.10
2022-11-25T22:30:24.039Z,2.20
2022-11-25T22:33:01.098Z,2.20
2022-11-25T22:35:29.305Z,2.10
2022-11-25T22:37:56.602Z,2.10
2022-11-25T22:40:25.094Z,2.10
2022-11-25T22:42:55.151Z,2.10
2022-11-25T22:45:41.286Z,2.10
2022-11-25T22:48:10.195Z,2.20
2022-11-25T22:50:37.964Z,2.20
2022-11-25T22:53:16.798Z,2.20
2022-11-25T22:55:46.217Z,2.10
2022-11-25T22:58:15.303Z,2.20
2022-11-25T23:00:46.654Z,2.10
2022-11-25T23:03:25.552Z,2.10
2022-11-25T23:05:55.466Z,2.10
2022-11-25T23:08:26.423Z,2.10
2022-11-25T23:10:56.405Z,2.20
2022-11-25T23:13:24.826Z,2.30
2022-11-25T23:16:01.470Z,2.30
2022-11-25T23:18:41.585Z,2.40
2022-11-25T23:21:24.368Z,2.40
2022-11-25T23:23:52.941Z,2.40
2022-11-25T23:26:21.452Z,2.40
2022-11-25T23:28:49.902Z,2.40
2022-11-25T23:31:18.714Z,2.40
2022-11-25T23:33:51.811Z,2.40
2022-11-25T23:36:36.116Z,2.40
2022-11-25T23:39:04.343Z,2.30
2022-11-25T23:41:34.318Z,2.30
2022-11-25T23:44:26.756Z,2.30
2022-11-25T23:47:03.159Z,2.20
2022-11-25T23:49:43.535Z,2.20
2022-11-25T23:52:16.409Z,2.20
2022-11-25T23:54:47.661Z,2.20
2022-11-25T23:57:21.722Z,2.20
2022-11-25T23:59:50.586Z,2.20
